VIP Ground Handling & Aviation Services

 

 
Airport

BURGAS (BOJ)

Ground Handling Services – BOJ/LBBG

VIP Ground Handling

State Ground Handling

Military Ground Handling

Slot & PPR Coordination

Fuel Arrangements

Crew Accommodation Arrangements

Crew Transportation

Customs & Immigration Assistance

Executive Terminal Services

Crew Lounge

Flight Planning, Weather Briefing and NOTAMs

Catering Arrangements

Security Services

Aircraft Maintenance

Airport Customs & Immigration

Concierge Services

VIP Meet & Greet

Helicopter Transfers

Chauffeur Services

Aircraft Charter

Yacht Charter

Hire & Rental

Entertainment & Hospitality

Health & Beauty

Delivery Services

Conference & Meeting rooms

Burgas Airport, Bulgaria

+359895151500 (24/7)

+359 2 9459020

bulgaria@alphajetservices.com

Burgas Airport
Airport Type
•Civil
Operating Hours
•Check NOTAMS / Contact us
Fuel Available
•JET A1
Fire Category
•8
Approaches
•ILS / DME NDB
Available data for LBBG from the past 2 hours
BURGAS
Metar
LBBG 261000Z 12011KT CAVOK 32/17 Q1019 NOSIG

10:00 UTC

Wind: 120° 11kt

Visibility:

Sky:

Temp: 32 deg C / 89.6 deg F

Dewpoint: 17 deg C / 62.6 deg F

Pressure: 1019 hPa

TAF
TAF LBBG 260500Z 2606/2706 02012KT CAVOK BECMG 2610/2612 11018KT BECMG 2620/2622 VRB04KT